Kingsley Field, Oregon
Current Conditions -  °F | °C
As of 10:53 PM on Saturday 22 Nov 2014 (Local Time) from KLMT Reporting Station
Clear Clear  
Wind Chill: 29°   Ceiling: Unl
Heat Index: 29°   Visibility: 10mi
Dew Point: 26°   Wind: 3mph
Humidity: 89%   Direction: 170°S
Pressure: 30.26"   Gusts: NA
Location:  42.2527°N, 121.834°W
Report Text: KLMT 230653Z AUTO 17003KT 10SM CLR M02/M03 A3026 RMK AO2 SLP255 T10171033
Loading
Personal Weather Stations






























Interactive Weather Map New forecast layout! Learn more

10-Day Weather Forecast

Advertisements
Track Severe Weather on mobile